createdAt,value
2023-02-11T16:34:14.541Z,11.02
2023-02-11T16:36:42.350Z,14.35
2023-02-11T16:39:12.156Z,12.05
2023-02-11T16:41:39.837Z,9.45
2023-02-11T16:44:07.658Z,9.68
2023-02-11T16:46:35.538Z,7.38
2023-02-11T16:49:10.555Z,11.63
2023-02-11T16:51:40.650Z,12.68
2023-02-11T16:54:08.792Z,6.90
2023-02-11T16:56:37.747Z,12.25
2023-02-11T16:59:05.288Z,10.02
2023-02-11T17:01:33.035Z,7.78
2023-02-11T17:04:01.081Z,9.67
2023-02-11T17:06:29.095Z,10.68
2023-02-11T17:08:56.682Z,11.27
2023-02-11T17:11:24.309Z,10.38
2023-02-11T17:13:53.240Z,10.10
2023-02-11T17:16:24.927Z,9.73
2023-02-11T17:18:52.644Z,12.57
2023-02-11T17:21:20.265Z,9.77
2023-02-11T17:23:47.815Z,10.55
2023-02-11T17:26:15.398Z,9.23
2023-02-11T17:28:43.315Z,14.30
2023-02-11T17:31:12.427Z,9.52
2023-02-11T17:33:40.089Z,8.48
2023-02-11T17:36:08.936Z,11.70
2023-02-11T17:38:37.892Z,9.95
2023-02-11T17:41:06.692Z,10.40
2023-02-11T17:43:34.312Z,9.45
2023-02-11T17:46:01.913Z,11.23
2023-02-11T17:48:30.841Z,10.40
2023-02-11T17:50:58.435Z,8.73
2023-02-11T17:53:26.047Z,11.35
2023-02-11T17:55:55.744Z,12.32
2023-02-11T17:58:23.443Z,9.75
2023-02-11T18:00:51.016Z,9.73
2023-02-11T18:03:18.617Z,11.93
2023-02-11T18:05:47.606Z,10.50
2023-02-11T18:08:15.171Z,13.82
2023-02-11T18:10:43.052Z,10.15
2023-02-11T18:13:10.645Z,11.43
2023-02-11T18:15:38.278Z,12.48
2023-02-11T18:18:05.992Z,10.00
2023-02-11T18:20:33.535Z,11.45
2023-02-11T18:23:02.529Z,11.07
2023-02-11T18:25:30.843Z,10.88
2023-02-11T18:27:58.479Z,13.02
2023-02-11T18:30:26.077Z,13.15
2023-02-11T18:32:54.949Z,12.52
2023-02-11T18:35:23.556Z,13.43
2023-02-11T18:37:52.659Z,11.07
2023-02-11T18:40:21.741Z,13.25
2023-02-11T18:42:49.345Z,11.90
2023-02-11T18:45:16.964Z,12.80
2023-02-11T18:47:44.539Z,12.60
2023-02-11T18:50:14.670Z,13.13
2023-02-11T18:52:42.337Z,13.43
2023-02-11T18:55:10.332Z,14.13
2023-02-11T18:57:39.328Z,16.95
2023-02-11T19:00:08.429Z,16.67
2023-02-11T19:02:36.819Z,18.27
2023-02-11T19:05:05.852Z,14.70
2023-02-11T19:07:33.503Z,11.55
2023-02-11T19:10:01.172Z,10.68
2023-02-11T19:12:28.827Z,11.82
2023-02-11T19:15:00.433Z,14.88
2023-02-11T19:17:28.524Z,13.88
2023-02-11T19:19:56.172Z,11.27
2023-02-11T19:22:23.798Z,12.23
2023-02-11T19:24:51.350Z,11.57
2023-02-11T19:27:19.006Z,13.85
2023-02-11T19:29:46.816Z,11.55
2023-02-11T19:32:16.285Z,13.30
2023-02-11T19:34:43.901Z,14.77
2023-02-11T19:37:12.536Z,13.70
2023-02-11T19:39:40.360Z,13.10
2023-02-11T19:42:08.229Z,14.35
2023-02-11T19:44:35.785Z,14.68
2023-02-11T19:47:03.453Z,14.13
2023-02-11T19:49:32.386Z,15.40
2023-02-11T19:52:00.175Z,14.90
2023-02-11T19:54:29.085Z,17.85
2023-02-11T19:56:56.940Z,15.65
2023-02-11T19:59:24.763Z,17.63
2023-02-11T20:01:53.740Z,17.35
2023-02-11T20:04:21.488Z,15.85
2023-02-11T20:06:50.531Z,18.55
2023-02-11T20:09:18.180Z,17.30
2023-02-11T20:11:45.917Z,13.25
2023-02-11T20:14:15.567Z,16.52
2023-02-11T20:16:49.044Z,16.48
2023-02-11T20:19:18.846Z,15.97
2023-02-11T20:21:47.845Z,18.45
2023-02-11T20:24:17.421Z,17.17
2023-02-11T20:26:46.788Z,17.75
2023-02-11T20:29:15.165Z,19.83
2023-02-11T20:31:42.882Z,20.50
2023-02-11T20:34:11.250Z,21.23
2023-02-11T20:36:40.196Z,21.85
2023-02-11T20:39:08.112Z,16.58
2023-02-11T20:41:39.630Z,19.17
2023-02-11T20:44:09.082Z,21.17
2023-02-11T20:46:39.906Z,19.83
2023-02-11T20:49:08.629Z,18.17
2023-02-11T20:51:37.229Z,24.13
2023-02-11T20:54:06.071Z,22.60
2023-02-11T20:56:37.463Z,16.92
2023-02-11T20:59:06.717Z,23.15
2023-02-11T21:01:35.768Z,17.63
2023-02-11T21:04:05.645Z,23.05
2023-02-11T21:06:34.870Z,20.35
2023-02-11T21:09:02.763Z,21.55
2023-02-11T21:11:31.046Z,18.92
2023-02-11T21:14:00.143Z,22.90
2023-02-11T21:16:28.037Z,20.73
2023-02-11T21:18:55.921Z,21.63
2023-02-11T21:21:24.259Z,23.25
2023-02-11T21:23:51.869Z,21.80
2023-02-11T21:26:19.688Z,19.67
2023-02-11T21:28:48.721Z,20.08
2023-02-11T21:31:23.065Z,23.10
2023-02-11T21:33:51.393Z,24.30
2023-02-11T21:36:19.103Z,20.63
2023-02-11T21:38:46.687Z,21.77
2023-02-11T21:41:14.262Z,21.38
2023-02-11T21:43:41.815Z,20.98
2023-02-11T21:46:10.977Z,20.67
2023-02-11T21:48:39.985Z,18.58
2023-02-11T21:51:09.175Z,22.05
2023-02-11T21:53:36.796Z,21.00
2023-02-11T21:56:06.447Z,22.48
2023-02-11T21:58:34.576Z,22.38
2023-02-11T22:01:02.650Z,25.83
2023-02-11T22:03:30.282Z,25.45
2023-02-11T22:05:59.225Z,23.65
2023-02-11T22:08:26.817Z,26.45
2023-02-11T22:10:54.465Z,23.45
2023-02-11T22:13:22.031Z,25.92
2023-02-11T22:15:58.358Z,26.48
2023-02-11T22:18:26.026Z,28.30
2023-02-11T22:21:02.571Z,29.30
2023-02-11T22:23:30.727Z,27.77
2023-02-11T22:25:58.976Z,29.80
2023-02-11T22:28:26.947Z,26.23
2023-02-11T22:30:55.375Z,31.55
2023-02-11T22:33:23.342Z,29.17
2023-02-11T22:35:57.440Z,27.25
2023-02-11T22:38:26.610Z,29.92
2023-02-11T22:40:54.347Z,31.80
2023-02-11T22:43:22.183Z,33.10
2023-02-11T22:45:50.132Z,30.00
2023-02-11T22:48:21.384Z,34.55
2023-02-11T22:50:50.392Z,31.38
2023-02-11T22:53:17.995Z,36.13
2023-02-11T22:55:46.985Z,30.73
2023-02-11T22:58:14.580Z,31.05
2023-02-11T23:00:42.857Z,33.22
2023-02-11T23:03:11.855Z,30.13
2023-02-11T23:05:39.994Z,32.00
2023-02-11T23:08:08.189Z,33.37
2023-02-11T23:10:36.333Z,32.45
2023-02-11T23:13:05.619Z,34.38
2023-02-11T23:15:33.264Z,35.65
2023-02-11T23:18:00.915Z,30.67
2023-02-11T23:20:28.620Z,31.73
2023-02-11T23:22:56.278Z,30.80
2023-02-11T23:25:23.881Z,32.17
2023-02-11T23:27:51.450Z,31.35
2023-02-11T23:30:21.801Z,33.45
2023-02-11T23:32:49.436Z,34.40
2023-02-11T23:35:22.119Z,32.78
2023-02-11T23:37:50.705Z,30.75
2023-02-11T23:40:18.765Z,33.83
2023-02-11T23:42:47.612Z,33.75
2023-02-11T23:45:15.583Z,31.90
2023-02-11T23:47:45.035Z,35.15
2023-02-11T23:50:12.999Z,36.33
2023-02-11T23:52:40.578Z,36.22
2023-02-11T23:55:08.388Z,41.13
2023-02-11T23:57:36.281Z,38.13
